createdAt,value
2022-10-26T00:01:46.219Z,3.28
2022-10-26T00:04:16.077Z,3.67
2022-10-26T00:06:44.694Z,3.45
2022-10-26T00:09:13.462Z,3.55
2022-10-26T00:11:42.067Z,3.33
2022-10-26T00:14:10.610Z,3.80
2022-10-26T00:16:39.250Z,3.28
2022-10-26T00:19:07.890Z,3.47
2022-10-26T00:21:37.703Z,3.13
2022-10-26T00:24:06.351Z,3.10
2022-10-26T00:26:34.857Z,2.95
2022-10-26T00:29:03.344Z,3.80
2022-10-26T00:31:31.763Z,3.63
2022-10-26T00:34:00.166Z,3.40
2022-10-26T00:36:28.654Z,2.90
2022-10-26T00:38:59.012Z,3.10
2022-10-26T00:41:28.549Z,2.88
2022-10-26T00:43:57.351Z,3.03
2022-10-26T00:46:27.262Z,2.58
2022-10-26T00:48:58.014Z,2.60
2022-10-26T00:51:30.298Z,2.47
2022-10-26T00:54:01.610Z,2.67
2022-10-26T00:56:30.507Z,2.50
2022-10-26T00:59:01.776Z,2.63
2022-10-26T01:01:30.849Z,3.08
2022-10-26T01:03:59.607Z,2.83
2022-10-26T01:06:28.530Z,2.95
2022-10-26T01:08:57.110Z,2.55
2022-10-26T01:11:27.657Z,2.92
2022-10-26T01:13:57.810Z,2.38
2022-10-26T01:16:44.118Z,2.67
2022-10-26T01:19:28.989Z,2.30
2022-10-26T01:21:59.274Z,2.72
2022-10-26T01:24:37.109Z,2.60
2022-10-26T01:27:23.230Z,2.50
2022-10-26T01:30:06.467Z,2.50
2022-10-26T01:32:38.260Z,2.45
2022-10-26T01:35:10.090Z,2.80
2022-10-26T01:37:39.656Z,2.40
2022-10-26T01:40:11.342Z,2.20
2022-10-26T01:42:44.151Z,2.35
2022-10-26T01:45:14.420Z,2.50
2022-10-26T01:47:46.635Z,2.55
2022-10-26T01:50:15.238Z,2.13
2022-10-26T01:52:43.675Z,2.80
2022-10-26T01:55:26.953Z,2.47
2022-10-26T01:57:56.441Z,2.22
2022-10-26T02:00:24.806Z,2.10
2022-10-26T02:03:08.657Z,2.35
2022-10-26T02:05:42.052Z,2.45
2022-10-26T02:08:17.461Z,2.45
2022-10-26T02:10:49.882Z,2.28
2022-10-26T02:13:20.670Z,2.20
2022-10-26T02:15:51.585Z,2.35
2022-10-26T02:18:26.524Z,2.13
2022-10-26T02:20:57.482Z,2.03
2022-10-26T02:23:27.110Z,2.33
2022-10-26T02:25:58.371Z,2.42
2022-10-26T02:28:28.058Z,2.40
2022-10-26T02:30:57.606Z,2.30
2022-10-26T02:33:29.189Z,2.53
2022-10-26T02:35:58.670Z,2.35
2022-10-26T02:38:28.658Z,2.50
2022-10-26T02:40:58.440Z,2.53
2022-10-26T02:43:27.543Z,2.20
2022-10-26T02:45:58.464Z,2.40
2022-10-26T02:48:28.715Z,2.63
2022-10-26T02:51:01.033Z,2.33
2022-10-26T02:53:31.629Z,2.20
2022-10-26T02:56:02.187Z,2.47
2022-10-26T02:58:31.523Z,2.15
2022-10-26T03:01:00.258Z,2.38
2022-10-26T03:03:30.201Z,2.65
2022-10-26T03:05:58.744Z,2.60
2022-10-26T03:11:00.661Z,2.58
2022-10-26T03:13:29.084Z,2.88
2022-10-26T03:15:58.167Z,2.38
2022-10-26T03:18:27.018Z,2.85
2022-10-26T03:20:56.955Z,2.60
2022-10-26T03:23:25.592Z,2.92
2022-10-26T03:25:54.104Z,2.50
2022-10-26T03:28:22.606Z,2.67
2022-10-26T03:30:51.291Z,2.72
2022-10-26T03:33:20.954Z,2.72
2022-10-26T03:35:57.736Z,2.58
2022-10-26T03:38:26.277Z,2.20
2022-10-26T03:40:54.716Z,2.83
2022-10-26T03:43:23.158Z,2.63
2022-10-26T03:45:51.732Z,2.80
2022-10-26T03:48:20.555Z,2.55
2022-10-26T03:50:49.149Z,2.60
2022-10-26T03:53:18.998Z,2.45
2022-10-26T03:55:47.585Z,2.67
2022-10-26T03:58:16.017Z,2.55
2022-10-26T04:00:44.605Z,3.03
2022-10-26T04:03:13.125Z,2.45
2022-10-26T04:05:41.583Z,3.17
2022-10-26T04:08:11.318Z,2.15
2022-10-26T04:10:41.252Z,2.30
2022-10-26T04:13:11.685Z,2.25
2022-10-26T04:15:40.300Z,2.08
2022-10-26T04:18:08.686Z,2.50
2022-10-26T04:20:39.195Z,2.40
2022-10-26T04:23:08.504Z,2.03
2022-10-26T04:25:37.121Z,2.15
2022-10-26T04:28:08.671Z,2.13
2022-10-26T04:30:37.828Z,2.05
2022-10-26T04:33:06.517Z,1.67
2022-10-26T04:35:35.167Z,2.10
2022-10-26T04:38:04.756Z,1.90
2022-10-26T04:40:35.019Z,2.10
2022-10-26T04:45:47.806Z,2.15
2022-10-26T04:48:16.331Z,1.70
2022-10-26T04:50:44.806Z,1.80
2022-10-26T04:53:13.332Z,2.00
2022-10-26T04:55:50.176Z,1.92
2022-10-26T04:58:18.877Z,2.10
2022-10-26T05:00:48.841Z,2.10
2022-10-26T05:03:17.296Z,1.80
2022-10-26T05:08:30.041Z,2.30
2022-10-26T05:10:58.566Z,1.75
2022-10-26T05:16:06.924Z,2.10
2022-10-26T05:21:19.737Z,2.35
2022-10-26T05:23:52.689Z,2.13
2022-10-26T05:26:21.235Z,1.70
2022-10-26T05:28:49.838Z,2.08
2022-10-26T05:34:02.167Z,2.20
2022-10-26T05:39:13.203Z,1.90
2022-10-26T05:41:42.375Z,2.38
2022-10-26T05:44:10.826Z,2.60
2022-10-26T05:52:28.799Z,2.03
2022-10-26T05:54:57.416Z,2.08
2022-10-26T05:57:26.155Z,2.10
2022-10-26T05:59:56.696Z,1.95
2022-10-26T06:02:34.641Z,2.03
2022-10-26T06:05:05.553Z,2.05
2022-10-26T06:07:38.504Z,1.83
2022-10-26T06:10:07.582Z,1.90
2022-10-26T06:12:37.296Z,2.17
2022-10-26T06:15:06.118Z,1.73
2022-10-26T06:17:45.536Z,1.60
2022-10-26T06:20:22.237Z,1.98
2022-10-26T06:22:58.432Z,1.88
2022-10-26T06:25:30.536Z,2.10
2022-10-26T06:28:07.306Z,2.10
2022-10-26T06:30:35.731Z,1.90
2022-10-26T06:33:18.403Z,2.05
2022-10-26T06:36:00.097Z,2.10
2022-10-26T06:38:29.530Z,1.90
2022-10-26T06:40:59.178Z,2.20
2022-10-26T06:46:15.489Z,1.85
2022-10-26T06:48:51.211Z,1.80
2022-10-26T06:51:20.091Z,1.80
2022-10-26T06:53:52.550Z,2.10
2022-10-26T06:56:21.575Z,2.15
2022-10-26T06:58:51.076Z,1.90
2022-10-26T07:01:21.565Z,1.85
2022-10-26T07:03:51.902Z,1.77
2022-10-26T07:06:20.385Z,1.50
2022-10-26T07:08:51.190Z,1.75
2022-10-26T07:11:19.775Z,1.52
2022-10-26T07:13:55.841Z,1.65
2022-10-26T07:16:24.609Z,1.80
2022-10-26T07:18:54.692Z,1.70
2022-10-26T07:21:23.263Z,1.58
2022-10-26T07:23:52.674Z,1.92
2022-10-26T07:26:21.141Z,1.85
2022-10-26T07:28:51.306Z,2.08
2022-10-26T07:31:21.518Z,1.80
2022-10-26T07:33:49.990Z,1.95
2022-10-26T07:36:27.295Z,1.75
2022-10-26T07:38:56.039Z,1.77
2022-10-26T07:41:24.849Z,1.80
2022-10-26T07:43:53.274Z,1.60
2022-10-26T07:46:21.710Z,1.73
2022-10-26T07:48:50.170Z,1.50
2022-10-26T07:51:20.313Z,1.83
2022-10-26T07:53:48.829Z,2.00
2022-10-26T07:56:17.331Z,1.60
2022-10-26T07:58:45.835Z,2.17
2022-10-26T08:01:15.430Z,2.20
2022-10-26T08:04:06.599Z,2.05
2022-10-26T08:06:43.736Z,1.60
2022-10-26T08:09:12.289Z,2.10
2022-10-26T08:11:40.754Z,1.70
2022-10-26T08:14:09.540Z,1.90
2022-10-26T08:16:40.158Z,1.80
2022-10-26T08:19:10.129Z,1.60
2022-10-26T08:21:43.964Z,2.00
2022-10-26T08:24:30.674Z,2.03
2022-10-26T08:27:09.326Z,1.90
2022-10-26T08:32:38.670Z,2.03
2022-10-26T08:35:07.532Z,1.92
2022-10-26T08:37:45.497Z,1.65
2022-10-26T08:40:25.656Z,2.05
2022-10-26T08:42:56.843Z,1.98
2022-10-26T08:45:33.001Z,3.40
2022-10-26T08:48:07.593Z,3.10
2022-10-26T08:50:40.550Z,2.13
2022-10-26T08:53:24.051Z,3.22
2022-10-26T09:01:59.990Z,1.98
2022-10-26T09:04:47.527Z,1.98
2022-10-26T09:07:25.729Z,2.05
2022-10-26T09:10:06.644Z,2.78
2022-10-26T09:12:46.395Z,6.82
2022-10-26T09:15:25.860Z,1.92
2022-10-26T09:18:32.648Z,2.13
2022-10-26T09:24:24.290Z,1.98
2022-10-26T09:32:55.990Z,2.17
2022-10-26T09:40:59.087Z,2.20
2022-10-26T09:47:04.602Z,2.20
2022-10-26T09:49:37.723Z,2.03
2022-10-26T09:52:06.645Z,2.50
2022-10-26T09:54:35.325Z,2.45
2022-10-26T09:57:04.677Z,2.30
2022-10-26T10:11:43.192Z,2.30
2022-10-26T10:14:19.343Z,2.25
2022-10-26T10:20:06.439Z,2.28
2022-10-26T10:25:37.852Z,2.33
2022-10-26T10:28:28.701Z,2.90
2022-10-26T10:30:59.586Z,2.45
2022-10-26T10:33:38.025Z,2.63
2022-10-26T10:36:08.138Z,2.60
2022-10-26T10:38:53.187Z,2.90
2022-10-26T10:41:30.332Z,2.72
2022-10-26T10:44:45.441Z,3.20
2022-10-26T10:50:10.431Z,2.65
2022-10-26T10:52:47.703Z,2.70
2022-10-26T10:58:12.554Z,3.10
2022-10-26T11:00:59.794Z,2.75
2022-10-26T11:03:46.413Z,3.22
2022-10-26T11:10:18.797Z,2.90
2022-10-26T11:13:44.828Z,2.38
2022-10-26T11:16:15.655Z,2.50
2022-10-26T11:18:47.780Z,2.40
2022-10-26T11:21:44.602Z,2.40
2022-10-26T11:24:17.102Z,2.22
2022-10-26T11:30:14.896Z,2.50
2022-10-26T11:32:47.662Z,2.83
2022-10-26T11:38:06.086Z,2.58
2022-10-26T11:40:59.208Z,2.78
2022-10-26T11:52:43.253Z,2.70
2022-10-26T11:57:56.799Z,2.17
2022-10-26T12:00:25.788Z,2.25
2022-10-26T12:06:00.208Z,2.08
2022-10-26T12:11:38.511Z,2.35
2022-10-26T12:14:09.633Z,2.45
2022-10-26T12:16:44.621Z,2.38
2022-10-26T12:19:17.774Z,1.80
2022-10-26T12:21:52.999Z,1.90
2022-10-26T12:33:30.080Z,2.10
2022-10-26T12:36:05.612Z,2.58
2022-10-26T12:38:55.165Z,2.30
2022-10-26T12:44:33.758Z,2.28
2022-10-26T12:47:05.733Z,1.85
2022-10-26T12:49:49.124Z,1.98
2022-10-26T12:52:38.578Z,2.10
2022-10-26T13:01:40.264Z,2.00
2022-10-26T13:04:27.850Z,1.70
2022-10-26T13:07:10.828Z,1.90
2022-10-26T13:09:57.773Z,2.10
2022-10-26T13:12:33.797Z,1.90
2022-10-26T13:15:12.254Z,1.75
2022-10-26T13:20:31.845Z,1.90
2022-10-26T13:23:03.420Z,1.52
2022-10-26T13:25:47.620Z,1.83
2022-10-26T13:28:31.299Z,2.20
2022-10-26T13:33:45.363Z,1.95
2022-10-26T13:36:19.153Z,2.22
2022-10-26T13:39:13.451Z,2.53
2022-10-26T13:42:00.549Z,2.33
2022-10-26T13:47:56.889Z,2.20
2022-10-26T13:53:12.598Z,2.00
2022-10-26T14:01:40.361Z,1.98
2022-10-26T14:04:18.671Z,2.58
2022-10-26T14:09:41.013Z,3.08
2022-10-26T14:12:30.153Z,2.60
2022-10-26T14:15:27.423Z,2.60
2022-10-26T14:17:56.717Z,2.17
2022-10-26T14:20:31.543Z,2.22
2022-10-26T14:25:59.656Z,2.30
2022-10-26T14:28:40.114Z,2.28
2022-10-26T14:31:44.074Z,2.25
2022-10-26T14:34:22.161Z,2.20
2022-10-26T14:36:52.109Z,2.08
2022-10-26T14:39:23.030Z,2.45
2022-10-26T14:44:43.066Z,2.05
2022-10-26T14:47:17.848Z,1.80
2022-10-26T14:52:31.556Z,1.60
2022-10-26T14:55:00.855Z,1.90
2022-10-26T15:00:20.342Z,1.67
2022-10-26T15:03:07.181Z,1.67
2022-10-26T15:05:44.960Z,1.52
2022-10-26T15:08:38.925Z,1.60
2022-10-26T15:14:02.552Z,1.70
2022-10-26T15:19:23.909Z,1.65
2022-10-26T15:22:05.267Z,1.90
2022-10-26T15:27:19.691Z,1.83
2022-10-26T15:32:55.822Z,1.83
2022-10-26T15:35:34.101Z,1.90
2022-10-26T15:41:23.612Z,1.70
2022-10-26T15:43:57.887Z,1.60
2022-10-26T15:46:30.145Z,1.48
2022-10-26T15:49:32.926Z,1.67
2022-10-26T15:52:10.152Z,1.95
2022-10-26T15:57:44.297Z,1.50
2022-10-26T16:00:16.671Z,1.55
2022-10-26T16:02:57.376Z,1.80
2022-10-26T16:05:25.918Z,1.83
2022-10-26T16:07:58.358Z,1.70
2022-10-26T16:10:27.315Z,1.80
2022-10-26T16:13:10.502Z,1.52
2022-10-26T16:18:21.767Z,1.70
2022-10-26T16:20:50.221Z,1.80
2022-10-26T16:23:20.219Z,1.67
2022-10-26T16:25:56.907Z,1.77
2022-10-26T16:28:25.812Z,1.75
2022-10-26T16:31:04.728Z,1.98
2022-10-26T16:33:35.831Z,1.50
2022-10-26T16:36:21.457Z,1.67
2022-10-26T16:38:51.478Z,2.30
2022-10-26T16:41:39.093Z,2.30
2022-10-26T16:44:09.753Z,2.60
2022-10-26T16:46:38.282Z,2.53
2022-10-26T16:49:06.704Z,2.20
2022-10-26T16:51:35.213Z,2.40
2022-10-26T16:54:05.461Z,2.67
2022-10-26T16:56:34.287Z,3.28
2022-10-26T16:59:02.747Z,3.10
2022-10-26T17:04:14.420Z,3.25
2022-10-26T17:06:42.930Z,2.63
2022-10-26T17:09:12.803Z,2.38
2022-10-26T17:11:41.502Z,2.65
2022-10-26T17:14:11.149Z,2.03
2022-10-26T17:16:39.662Z,2.33
2022-10-26T17:19:08.140Z,2.10
2022-10-26T17:24:21.154Z,1.95
2022-10-26T17:26:49.640Z,1.95
2022-10-26T17:29:18.394Z,1.98
2022-10-26T17:31:46.889Z,2.13
2022-10-26T17:34:15.471Z,1.98
2022-10-26T17:36:44.147Z,2.00
2022-10-26T17:39:12.808Z,2.50
2022-10-26T17:41:43.286Z,2.45
2022-10-26T17:44:11.949Z,2.30
2022-10-26T17:46:40.519Z,1.98
2022-10-26T17:49:09.077Z,2.30
2022-10-26T17:51:37.605Z,2.60
2022-10-26T17:54:06.703Z,2.90
2022-10-26T17:56:35.858Z,2.60
2022-10-26T17:59:07.119Z,3.50
2022-10-26T18:01:35.888Z,2.90
2022-10-26T18:06:46.882Z,3.97
2022-10-26T18:09:15.452Z,3.42
2022-10-26T18:11:44.452Z,3.40
2022-10-26T18:14:15.022Z,3.90
2022-10-26T18:16:43.594Z,3.53
2022-10-26T18:19:13.548Z,3.15
2022-10-26T18:21:42.118Z,3.20
2022-10-26T18:24:11.063Z,3.42
2022-10-26T18:26:40.163Z,3.40
2022-10-26T18:29:08.692Z,4.30
2022-10-26T18:31:38.867Z,4.00
2022-10-26T18:34:08.222Z,4.72
2022-10-26T18:41:02.701Z,4.25
2022-10-26T18:43:33.515Z,3.63
2022-10-26T18:46:05.964Z,3.67
2022-10-26T18:48:34.896Z,3.42
2022-10-26T18:51:07.380Z,3.33
2022-10-26T18:53:36.906Z,3.50
2022-10-26T18:56:09.110Z,3.17
2022-10-26T18:58:38.759Z,3.72
2022-10-26T19:01:09.050Z,3.08
2022-10-26T19:03:37.716Z,2.97
2022-10-26T19:06:09.942Z,3.53
2022-10-26T19:08:38.708Z,3.03
2022-10-26T19:11:09.437Z,2.80
2022-10-26T19:13:38.183Z,2.97
2022-10-26T19:16:16.890Z,3.00
2022-10-26T19:18:50.708Z,3.17
2022-10-26T19:21:22.609Z,3.38
2022-10-26T19:23:52.439Z,3.00
2022-10-26T19:26:25.515Z,2.95
2022-10-26T19:28:57.624Z,2.83
2022-10-26T19:31:27.360Z,3.13
2022-10-26T19:33:58.002Z,3.55
2022-10-26T19:36:27.855Z,3.00
2022-10-26T19:38:56.909Z,3.05
2022-10-26T19:41:28.489Z,3.08
2022-10-26T19:44:00.834Z,2.70
2022-10-26T19:46:31.096Z,3.00
2022-10-26T19:49:00.825Z,2.95
2022-10-26T19:51:30.512Z,3.63
2022-10-26T19:54:03.552Z,3.20
2022-10-26T19:56:35.579Z,3.47
2022-10-26T19:59:04.498Z,3.30
2022-10-26T20:01:33.404Z,3.08
2022-10-26T20:04:03.202Z,3.88
2022-10-26T20:06:35.422Z,3.65
2022-10-26T20:09:05.402Z,4.00
2022-10-26T20:11:38.320Z,4.40
2022-10-26T20:14:08.324Z,4.30
2022-10-26T20:16:36.970Z,4.00
2022-10-26T20:19:05.886Z,3.90
2022-10-26T20:21:35.410Z,3.88
2022-10-26T20:24:07.852Z,4.13
2022-10-26T20:26:42.194Z,4.15
2022-10-26T20:29:12.054Z,4.25
2022-10-26T20:31:42.094Z,4.03
2022-10-26T20:34:15.121Z,4.00
2022-10-26T20:36:59.278Z,4.18
2022-10-26T20:39:28.094Z,4.55
2022-10-26T20:42:36.398Z,4.25
2022-10-26T20:44:57.678Z,4.72
2022-10-26T20:50:33.735Z,4.60
2022-10-26T20:53:05.405Z,4.10
2022-10-26T20:55:39.409Z,4.00
2022-10-26T20:58:12.370Z,4.00
2022-10-26T21:00:45.451Z,4.95
2022-10-26T21:03:20.160Z,4.05
2022-10-26T21:05:49.157Z,4.63
2022-10-26T21:08:17.936Z,3.97
2022-10-26T21:10:48.058Z,3.67
2022-10-26T21:13:33.857Z,4.00
2022-10-26T21:16:08.785Z,3.80
2022-10-26T21:21:39.326Z,3.63
2022-10-26T21:24:08.874Z,3.67
2022-10-26T21:26:37.716Z,4.03
2022-10-26T21:29:07.984Z,3.95
2022-10-26T21:31:36.923Z,4.15
2022-10-26T21:34:06.036Z,4.10
2022-10-26T21:39:19.962Z,4.13
2022-10-26T21:41:48.620Z,3.65
2022-10-26T21:44:40.316Z,3.75
2022-10-26T21:47:07.515Z,3.70
2022-10-26T21:49:36.228Z,3.38
2022-10-26T21:52:05.795Z,3.90
2022-10-26T21:54:34.514Z,3.50
2022-10-26T21:57:03.302Z,3.88
2022-10-26T21:59:33.502Z,3.92
2022-10-26T22:02:05.069Z,3.40
2022-10-26T22:04:34.275Z,3.80
2022-10-26T22:07:05.710Z,4.10
2022-10-26T22:09:44.775Z,4.22
2022-10-26T22:12:24.857Z,4.05
2022-10-26T22:18:25.954Z,3.90
2022-10-26T22:20:58.046Z,3.63
2022-10-26T22:23:34.075Z,3.50
2022-10-26T22:26:03.621Z,3.70
2022-10-26T22:28:33.127Z,3.75
2022-10-26T22:31:04.904Z,3.42
2022-10-26T22:33:34.031Z,3.75
2022-10-26T22:36:06.524Z,3.65
2022-10-26T22:38:35.308Z,3.47
2022-10-26T22:41:04.147Z,3.97
2022-10-26T22:43:33.293Z,4.03
2022-10-26T22:46:15.395Z,3.40
2022-10-26T22:48:45.472Z,3.40
2022-10-26T22:51:18.903Z,3.20
2022-10-26T22:53:48.019Z,3.80
2022-10-26T22:56:17.928Z,3.53
2022-10-26T22:58:46.558Z,3.60
2022-10-26T23:01:17.579Z,3.92
2022-10-26T23:03:46.391Z,3.97
2022-10-26T23:06:16.189Z,3.08
2022-10-26T23:08:44.816Z,3.17
2022-10-26T23:11:14.060Z,3.33
2022-10-26T23:13:42.696Z,3.60
2022-10-26T23:16:12.097Z,3.63
2022-10-26T23:18:42.969Z,3.08
2022-10-26T23:21:12.367Z,3.30
2022-10-26T23:23:41.147Z,3.33
2022-10-26T23:26:12.197Z,3.53
2022-10-26T23:28:41.287Z,3.70
2022-10-26T23:31:10.533Z,3.33
2022-10-26T23:33:39.332Z,3.35
2022-10-26T23:36:10.109Z,3.47
2022-10-26T23:38:38.917Z,4.03
2022-10-26T23:41:10.793Z,3.15
2022-10-26T23:43:41.826Z,3.03
2022-10-26T23:46:10.411Z,3.55
2022-10-26T23:48:39.054Z,3.58
2022-10-26T23:51:16.846Z,2.88
2022-10-26T23:53:45.556Z,3.90
2022-10-26T23:56:14.133Z,2.90
2022-10-26T23:58:42.582Z,3.50
